sensor_id;sensor_type;location;lat;lon;timestamp;pressure;altitude;pressure_sealevel;temperature;humidity
22550;BME280;11441;57.164;-2.120;2023-04-01T00:01:05;100006.59;;;6.44;100.00
22550;BME280;11441;57.164;-2.120;2023-04-01T00:03:50;100010.72;;;6.50;100.00
22550;BME280;11441;57.164;-2.120;2023-04-01T00:06:34;100011.06;;;6.23;100.00
22550;BME280;11441;57.164;-2.120;2023-04-01T00:09:01;100010.34;;;6.27;100.00
22550;BME280;11441;57.164;-2.120;2023-04-01T00:11:28;100014.94;;;6.22;100.00
22550;BME280;11441;57.164;-2.120;2023-04-01T00:13:56;100018.00;;;6.33;100.00
22550;BME280;11441;57.164;-2.120;2023-04-01T00:16:22;100011.59;;;6.54;100.00
22550;BME280;11441;57.164;-2.120;2023-04-01T00:18:50;100016.06;;;6.46;100.00
22550;BME280;11441;57.164;-2.120;2023-04-01T00:21:35;100019.25;;;6.48;100.00
22550;BME280;11441;57.164;-2.120;2023-04-01T00:24:03;100013.31;;;6.58;100.00
22550;BME280;11441;57.164;-2.120;2023-04-01T00:26:30;100018.69;;;6.55;100.00
22550;BME280;11441;57.164;-2.120;2023-04-01T00:28:58;100022.66;;;6.45;100.00
22550;BME280;11441;57.164;-2.120;2023-04-01T00:31:25;100025.75;;;6.44;100.00
22550;BME280;11441;57.164;-2.120;2023-04-01T00:33:52;100016.19;;;6.50;100.00
22550;BME280;11441;57.164;-2.120;2023-04-01T00:36:20;100025.28;;;6.54;100.00
22550;BME280;11441;57.164;-2.120;2023-04-01T00:38:50;100016.28;;;6.53;100.00
22550;BME280;11441;57.164;-2.120;2023-04-01T00:41:19;100023.22;;;6.51;100.00
22550;BME280;11441;57.164;-2.120;2023-04-01T00:43:49;100027.69;;;6.55;100.00
22550;BME280;11441;57.164;-2.120;2023-04-01T00:46:18;100036.09;;;6.63;100.00
22550;BME280;11441;57.164;-2.120;2023-04-01T00:48:51;100029.72;;;6.58;100.00
22550;BME280;11441;57.164;-2.120;2023-04-01T00:51:23;100032.59;;;6.50;100.00
22550;BME280;11441;57.164;-2.120;2023-04-01T00:53:54;100031.88;;;6.53;100.00
22550;BME280;11441;57.164;-2.120;2023-04-01T00:56:34;100041.34;;;6.55;100.00
22550;BME280;11441;57.164;-2.120;2023-04-01T00:59:06;100038.63;;;6.55;100.00
22550;BME280;11441;57.164;-2.120;2023-04-01T01:01:35;100034.97;;;6.51;100.00
22550;BME280;11441;57.164;-2.120;2023-04-01T01:04:02;100043.63;;;6.66;100.00
22550;BME280;11441;57.164;-2.120;2023-04-01T01:06:40;100042.50;;;6.42;100.00
22550;BME280;11441;57.164;-2.120;2023-04-01T01:16:15;100049.25;;;6.45;100.00
22550;BME280;11441;57.164;-2.120;2023-04-01T01:18:58;100049.13;;;6.53;100.00
22550;BME280;11441;57.164;-2.120;2023-04-01T01:21:47;100050.81;;;6.46;100.00
22550;BME280;11441;57.164;-2.120;2023-04-01T01:24:30;100047.84;;;6.38;100.00
22550;BME280;11441;57.164;-2.120;2023-04-01T01:27:11;100055.63;;;6.24;100.00
22550;BME280;11441;57.164;-2.120;2023-04-01T01:35:42;100063.91;;;6.15;100.00
22550;BME280;11441;57.164;-2.120;2023-04-01T01:38:34;100071.69;;;6.26;100.00
22550;BME280;11441;57.164;-2.120;2023-04-01T01:41:05;100072.03;;;6.24;100.00
22550;BME280;11441;57.164;-2.120;2023-04-01T01:43:37;100067.47;;;6.28;100.00
22550;BME280;11441;57.164;-2.120;2023-04-01T01:46:10;100068.94;;;6.01;100.00
22550;BME280;11441;57.164;-2.120;2023-04-01T01:48:41;100070.16;;;6.03;100.00
22550;BME280;11441;57.164;-2.120;2023-04-01T01:51:08;100072.44;;;6.01;100.00
22550;BME280;11441;57.164;-2.120;2023-04-01T01:53:35;100076.75;;;6.02;100.00
22550;BME280;11441;57.164;-2.120;2023-04-01T01:56:03;100074.75;;;6.12;100.00
22550;BME280;11441;57.164;-2.120;2023-04-01T01:58:54;100082.84;;;6.20;100.00
22550;BME280;11441;57.164;-2.120;2023-04-01T02:01:28;100090.72;;;6.34;100.00
22550;BME280;11441;57.164;-2.120;2023-04-01T02:04:03;100090.50;;;6.27;100.00
22550;BME280;11441;57.164;-2.120;2023-04-01T02:06:34;100087.25;;;6.13;100.00
22550;BME280;11441;57.164;-2.120;2023-04-01T02:09:08;100089.31;;;6.16;100.00
22550;BME280;11441;57.164;-2.120;2023-04-01T02:14:08;100087.38;;;6.29;100.00
22550;BME280;11441;57.164;-2.120;2023-04-01T02:17:05;100087.03;;;6.18;100.00
22550;BME280;11441;57.164;-2.120;2023-04-01T02:19:35;100097.88;;;6.14;100.00
22550;BME280;11441;57.164;-2.120;2023-04-01T02:22:08;100093.44;;;6.34;100.00
22550;BME280;11441;57.164;-2.120;2023-04-01T02:24:38;100098.22;;;6.25;100.00
22550;BME280;11441;57.164;-2.120;2023-04-01T02:27:07;100100.50;;;6.23;100.00
22550;BME280;11441;57.164;-2.120;2023-04-01T02:29:54;100104.25;;;6.18;100.00
22550;BME280;11441;57.164;-2.120;2023-04-01T02:32:21;100113.81;;;6.12;100.00
22550;BME280;11441;57.164;-2.120;2023-04-01T02:34:49;100111.66;;;6.30;100.00
22550;BME280;11441;57.164;-2.120;2023-04-01T02:37:16;100103.00;;;6.28;100.00
22550;BME280;11441;57.164;-2.120;2023-04-01T02:39:43;100117.44;;;6.04;100.00
22550;BME280;11441;57.164;-2.120;2023-04-01T02:42:10;100127.00;;;5.98;100.00
22550;BME280;11441;57.164;-2.120;2023-04-01T02:44:37;100131.34;;;6.11;100.00
22550;BME280;11441;57.164;-2.120;2023-04-01T02:47:21;100140.56;;;6.07;100.00
22550;BME280;11441;57.164;-2.120;2023-04-01T02:49:48;100139.63;;;6.02;100.00
22550;BME280;11441;57.164;-2.120;2023-04-01T02:52:15;100141.28;;;6.28;100.00
22550;BME280;11441;57.164;-2.120;2023-04-01T02:54:42;100131.41;;;6.36;100.00
22550;BME280;11441;57.164;-2.120;2023-04-01T02:57:09;100142.78;;;6.26;100.00
22550;BME280;11441;57.164;-2.120;2023-04-01T02:59:35;100141.41;;;6.32;100.00
22550;BME280;11441;57.164;-2.120;2023-04-01T03:02:02;100141.75;;;6.30;100.00
22550;BME280;11441;57.164;-2.120;2023-04-01T03:04:29;100143.03;;;6.45;100.00
22550;BME280;11441;57.164;-2.120;2023-04-01T03:06:56;100147.38;;;6.00;100.00
22550;BME280;11441;57.164;-2.120;2023-04-01T03:09:23;100153.91;;;6.08;100.00
22550;BME280;11441;57.164;-2.120;2023-04-01T03:11:50;100163.91;;;6.04;100.00
22550;BME280;11441;57.164;-2.120;2023-04-01T03:14:17;100145.09;;;6.02;100.00
22550;BME280;11441;57.164;-2.120;2023-04-01T03:17:02;100159.84;;;6.10;100.00
22550;BME280;11441;57.164;-2.120;2023-04-01T03:19:29;100165.78;;;6.25;100.00
22550;BME280;11441;57.164;-2.120;2023-04-01T03:22:03;100167.03;;;6.15;100.00
22550;BME280;11441;57.164;-2.120;2023-04-01T03:24:30;100158.97;;;6.18;100.00
22550;BME280;11441;57.164;-2.120;2023-04-01T03:27:14;100157.16;;;6.35;100.00
22550;BME280;11441;57.164;-2.120;2023-04-01T03:29:41;100153.63;;;6.34;100.00
22550;BME280;11441;57.164;-2.120;2023-04-01T03:32:08;100168.34;;;6.42;100.00
22550;BME280;11441;57.164;-2.120;2023-04-01T03:34:35;100166.97;;;6.36;100.00
22550;BME280;11441;57.164;-2.120;2023-04-01T03:37:02;100165.94;;;6.40;100.00
22550;BME280;11441;57.164;-2.120;2023-04-01T03:39:30;100179.50;;;6.37;100.00
22550;BME280;11441;57.164;-2.120;2023-04-01T03:41:58;100180.16;;;6.34;100.00
22550;BME280;11441;57.164;-2.120;2023-04-01T03:44:25;100183.41;;;6.48;100.00
22550;BME280;11441;57.164;-2.120;2023-04-01T03:46:54;100184.41;;;6.44;100.00
22550;BME280;11441;57.164;-2.120;2023-04-01T03:49:21;100178.94;;;6.44;100.00
22550;BME280;11441;57.164;-2.120;2023-04-01T03:51:48;100187.47;;;6.42;100.00
22550;BME280;11441;57.164;-2.120;2023-04-01T03:54:15;100183.97;;;6.54;100.00
22550;BME280;11441;57.164;-2.120;2023-04-01T03:56:43;100187.94;;;6.44;100.00
22550;BME280;11441;57.164;-2.120;2023-04-01T03:59:29;100193.53;;;6.48;100.00
22550;BME280;11441;57.164;-2.120;2023-04-01T04:01:56;100193.97;;;6.37;100.00
22550;BME280;11441;57.164;-2.120;2023-04-01T04:04:23;100193.06;;;6.46;100.00
22550;BME280;11441;57.164;-2.120;2023-04-01T04:06:50;100194.13;;;6.66;100.00
22550;BME280;11441;57.164;-2.120;2023-04-01T04:09:20;100198.56;;;6.70;100.00
22550;BME280;11441;57.164;-2.120;2023-04-01T04:11:47;100202.13;;;6.58;100.00
22550;BME280;11441;57.164;-2.120;2023-04-01T04:14:14;100202.81;;;6.68;100.00
22550;BME280;11441;57.164;-2.120;2023-04-01T04:16:42;100208.50;;;6.75;100.00
22550;BME280;11441;57.164;-2.120;2023-04-01T04:19:09;100210.09;;;6.64;100.00
22550;BME280;11441;57.164;-2.120;2023-04-01T04:21:36;100221.59;;;6.57;100.00
22550;BME280;11441;57.164;-2.120;2023-04-01T04:24:03;100228.31;;;6.59;100.00
22550;BME280;11441;57.164;-2.120;2023-04-01T04:26:50;100220.00;;;6.68;100.00
22550;BME280;11441;57.164;-2.120;2023-04-01T04:29:17;100230.38;;;6.63;100.00
22550;BME280;11441;57.164;-2.120;2023-04-01T04:31:44;100229.69;;;6.53;100.00
22550;BME280;11441;57.164;-2.120;2023-04-01T04:34:11;100235.84;;;6.50;100.00
22550;BME280;11441;57.164;-2.120;2023-04-01T04:36:38;100226.38;;;6.60;100.00
22550;BME280;11441;57.164;-2.120;2023-04-01T04:39:05;100244.09;;;6.29;100.00
22550;BME280;11441;57.164;-2.120;2023-04-01T04:41:36;100241.28;;;6.38;100.00
22550;BME280;11441;57.164;-2.120;2023-04-01T04:44:04;100244.47;;;6.40;100.00
22550;BME280;11441;57.164;-2.120;2023-04-01T04:46:31;100254.78;;;6.55;100.00
22550;BME280;11441;57.164;-2.120;2023-04-01T04:49:10;100255.88;;;6.42;100.00
22550;BME280;11441;57.164;-2.120;2023-04-01T04:51:37;100257.03;;;6.41;100.00
22550;BME280;11441;57.164;-2.120;2023-04-01T04:54:05;100261.91;;;6.48;100.00
22550;BME280;11441;57.164;-2.120;2023-04-01T04:56:47;100267.38;;;6.48;100.00
22550;BME280;11441;57.164;-2.120;2023-04-01T04:59:14;100265.69;;;6.43;100.00
22550;BME280;11441;57.164;-2.120;2023-04-01T05:01:50;100268.31;;;6.39;100.00
22550;BME280;11441;57.164;-2.120;2023-04-01T05:04:17;100263.13;;;6.26;100.00
22550;BME280;11441;57.164;-2.120;2023-04-01T05:06:44;100278.28;;;6.35;100.00
22550;BME280;11441;57.164;-2.120;2023-04-01T05:09:12;100270.22;;;6.39;100.00
22550;BME280;11441;57.164;-2.120;2023-04-01T05:11:39;100277.25;;;6.28;100.00
22550;BME280;11441;57.164;-2.120;2023-04-01T05:14:25;100283.31;;;6.33;100.00
22550;BME280;11441;57.164;-2.120;2023-04-01T05:17:02;100278.63;;;6.34;100.00
22550;BME280;11441;57.164;-2.120;2023-04-01T05:19:29;100283.38;;;6.25;100.00
22550;BME280;11441;57.164;-2.120;2023-04-01T05:21:56;100290.09;;;6.48;100.00
22550;BME280;11441;57.164;-2.120;2023-04-01T05:24:23;100293.97;;;6.47;100.00
22550;BME280;11441;57.164;-2.120;2023-04-01T05:26:50;100296.41;;;6.28;100.00
22550;BME280;11441;57.164;-2.120;2023-04-01T05:29:17;100297.31;;;6.32;100.00
22550;BME280;11441;57.164;-2.120;2023-04-01T05:31:47;100302.28;;;6.51;100.00
22550;BME280;11441;57.164;-2.120;2023-04-01T05:34:14;100311.53;;;6.46;100.00
22550;BME280;11441;57.164;-2.120;2023-04-01T05:36:42;100312.81;;;6.28;100.00
22550;BME280;11441;57.164;-2.120;2023-04-01T05:39:09;100309.69;;;6.17;100.00
22550;BME280;11441;57.164;-2.120;2023-04-01T05:41:37;100314.63;;;6.23;100.00
22550;BME280;11441;57.164;-2.120;2023-04-01T05:44:04;100317.38;;;6.23;100.00
22550;BME280;11441;57.164;-2.120;2023-04-01T05:46:40;100320.97;;;6.49;100.00
22550;BME280;11441;57.164;-2.120;2023-04-01T05:49:17;100310.84;;;6.49;100.00
22550;BME280;11441;57.164;-2.120;2023-04-01T05:51:43;100330.59;;;6.34;100.00
22550;BME280;11441;57.164;-2.120;2023-04-01T05:54:11;100325.88;;;6.43;100.00
22550;BME280;11441;57.164;-2.120;2023-04-01T05:56:38;100330.97;;;6.32;100.00
22550;BME280;11441;57.164;-2.120;2023-04-01T05:59:05;100330.88;;;6.41;100.00
22550;BME280;11441;57.164;-2.120;2023-04-01T06:01:32;100336.28;;;6.29;100.00
22550;BME280;11441;57.164;-2.120;2023-04-01T06:03:59;100330.75;;;6.16;100.00
22550;BME280;11441;57.164;-2.120;2023-04-01T06:06:28;100336.56;;;6.36;100.00
22550;BME280;11441;57.164;-2.120;2023-04-01T06:09:26;100343.75;;;6.40;100.00
22550;BME280;11441;57.164;-2.120;2023-04-01T06:11:58;100344.22;;;6.21;100.00
22550;BME280;11441;57.164;-2.120;2023-04-01T06:14:59;100348.94;;;6.33;100.00
22550;BME280;11441;57.164;-2.120;2023-04-01T06:25:35;100371.56;;;6.42;100.00
22550;BME280;11441;57.164;-2.120;2023-04-01T06:44:40;100382.84;;;6.20;100.00
22550;BME280;11441;57.164;-2.120;2023-04-01T06:56:40;100390.31;;;6.32;100.00
22550;BME280;11441;57.164;-2.120;2023-04-01T06:59:30;100398.19;;;6.54;100.00
22550;BME280;11441;57.164;-2.120;2023-04-01T07:04:46;100402.94;;;6.45;100.00
22550;BME280;11441;57.164;-2.120;2023-04-01T07:09:59;100410.88;;;6.38;100.00
22550;BME280;11441;57.164;-2.120;2023-04-01T07:12:46;100416.41;;;6.29;100.00
22550;BME280;11441;57.164;-2.120;2023-04-01T07:15:54;100421.16;;;6.41;100.00
22550;BME280;11441;57.164;-2.120;2023-04-01T07:18:37;100425.72;;;6.70;100.00
22550;BME280;11441;57.164;-2.120;2023-04-01T07:21:34;100427.50;;;6.54;100.00
22550;BME280;11441;57.164;-2.120;2023-04-01T07:27:00;100447.38;;;6.42;100.00
22550;BME280;11441;57.164;-2.120;2023-04-01T07:29:30;100449.06;;;6.55;100.00
22550;BME280;11441;57.164;-2.120;2023-04-01T07:46:46;100473.34;;;6.78;100.00
22550;BME280;11441;57.164;-2.120;2023-04-01T07:55:23;100485.94;;;6.91;100.00
22550;BME280;11441;57.164;-2.120;2023-04-01T08:01:59;100487.81;;;6.99;100.00
22550;BME280;11441;57.164;-2.120;2023-04-01T08:04:55;100502.91;;;6.85;100.00
22550;BME280;11441;57.164;-2.120;2023-04-01T08:07:40;100498.88;;;7.03;100.00
22550;BME280;11441;57.164;-2.120;2023-04-01T08:13:53;100508.72;;;7.04;100.00
22550;BME280;11441;57.164;-2.120;2023-04-01T08:16:54;100516.06;;;7.12;100.00
22550;BME280;11441;57.164;-2.120;2023-04-01T08:22:39;100525.25;;;7.29;100.00
22550;BME280;11441;57.164;-2.120;2023-04-01T08:25:26;100535.94;;;7.22;100.00
22550;BME280;11441;57.164;-2.120;2023-04-01T08:28:10;100527.91;;;7.38;100.00
22550;BME280;11441;57.164;-2.120;2023-04-01T08:31:01;100538.56;;;7.18;100.00
22550;BME280;11441;57.164;-2.120;2023-04-01T08:33:32;100538.97;;;7.08;100.00
22550;BME280;11441;57.164;-2.120;2023-04-01T08:36:08;100535.34;;;7.16;100.00
22550;BME280;11441;57.164;-2.120;2023-04-01T08:38:46;100541.66;;;6.95;100.00
22550;BME280;11441;57.164;-2.120;2023-04-01T08:50:19;100563.09;;;6.93;100.00
22550;BME280;11441;57.164;-2.120;2023-04-01T08:56:16;100572.75;;;6.70;100.00
22550;BME280;11441;57.164;-2.120;2023-04-01T08:59:08;100588.38;;;6.69;100.00
22550;BME280;11441;57.164;-2.120;2023-04-01T09:05:18;100599.81;;;6.63;100.00
22550;BME280;11441;57.164;-2.120;2023-04-01T09:08:12;100604.94;;;6.73;100.00
22550;BME280;11441;57.164;-2.120;2023-04-01T09:19:21;100629.47;;;6.60;100.00
22550;BME280;11441;57.164;-2.120;2023-04-01T09:33:39;100642.25;;;6.77;100.00
22550;BME280;11441;57.164;-2.120;2023-04-01T09:36:40;100647.56;;;6.74;100.00
22550;BME280;11441;57.164;-2.120;2023-04-01T09:39:36;100644.50;;;6.75;100.00
22550;BME280;11441;57.164;-2.120;2023-04-01T09:45:01;100662.31;;;6.60;100.00
22550;BME280;11441;57.164;-2.120;2023-04-01T09:54:26;100673.78;;;6.84;100.00
22550;BME280;11441;57.164;-2.120;2023-04-01T10:00:44;100681.25;;;6.74;100.00
22550;BME280;11441;57.164;-2.120;2023-04-01T10:12:40;100692.81;;;6.80;100.00
22550;BME280;11441;57.164;-2.120;2023-04-01T10:15:45;100708.22;;;6.93;100.00
22550;BME280;11441;57.164;-2.120;2023-04-01T10:30:35;100720.88;;;6.98;100.00
22550;BME280;11441;57.164;-2.120;2023-04-01T10:50:26;100755.50;;;7.03;100.00
22550;BME280;11441;57.164;-2.120;2023-04-01T10:56:39;100768.34;;;6.81;100.00
22550;BME280;11441;57.164;-2.120;2023-04-01T11:00:08;100769.59;;;6.84;100.00
22550;BME280;11441;57.164;-2.120;2023-04-01T11:09:39;100784.59;;;6.86;100.00
22550;BME280;11441;57.164;-2.120;2023-04-01T11:27:39;100819.13;;;7.08;100.00
22550;BME280;11441;57.164;-2.120;2023-04-01T11:38:26;100841.25;;;7.33;100.00
22550;BME280;11441;57.164;-2.120;2023-04-01T11:44:27;100845.53;;;7.13;100.00
22550;BME280;11441;57.164;-2.120;2023-04-01T11:56:06;100864.03;;;7.25;100.00
22550;BME280;11441;57.164;-2.120;2023-04-01T12:01:30;100872.13;;;7.51;100.00
22550;BME280;11441;57.164;-2.120;2023-04-01T12:07:06;100881.47;;;7.50;100.00
22550;BME280;11441;57.164;-2.120;2023-04-01T12:13:14;100893.91;;;7.47;100.00
22550;BME280;11441;57.164;-2.120;2023-04-01T12:16:21;100899.50;;;7.60;100.00
22550;BME280;11441;57.164;-2.120;2023-04-01T12:19:34;100901.09;;;7.61;100.00
22550;BME280;11441;57.164;-2.120;2023-04-01T12:22:29;100909.31;;;7.61;100.00
22550;BME280;11441;57.164;-2.120;2023-04-01T12:24:46;100909.50;;;7.55;100.00
22550;BME280;11441;57.164;-2.120;2023-04-01T12:27:31;100909.44;;;7.64;100.00
22550;BME280;11441;57.164;-2.120;2023-04-01T12:30:30;100914.03;;;7.51;100.00
22550;BME280;11441;57.164;-2.120;2023-04-01T12:44:37;100920.50;;;7.47;100.00
22550;BME280;11441;57.164;-2.120;2023-04-01T12:57:13;100945.59;;;7.66;100.00
22550;BME280;11441;57.164;-2.120;2023-04-01T13:02:13;100957.03;;;7.21;100.00
22550;BME280;11441;57.164;-2.120;2023-04-01T13:20:57;100977.66;;;7.66;100.00
22550;BME280;11441;57.164;-2.120;2023-04-01T13:25:47;100979.25;;;7.28;100.00
22550;BME280;11441;57.164;-2.120;2023-04-01T13:28:47;100983.38;;;7.43;100.00
22550;BME280;11441;57.164;-2.120;2023-04-01T13:31:47;100992.03;;;7.63;100.00
22550;BME280;11441;57.164;-2.120;2023-04-01T13:34:38;100994.19;;;7.40;100.00
22550;BME280;11441;57.164;-2.120;2023-04-01T13:43:23;100999.69;;;7.22;100.00
22550;BME280;11441;57.164;-2.120;2023-04-01T13:57:27;101020.22;;;7.72;100.00
22550;BME280;11441;57.164;-2.120;2023-04-01T14:00:35;101014.44;;;7.65;100.00
22550;BME280;11441;57.164;-2.120;2023-04-01T14:03:15;101026.53;;;7.64;100.00
22550;BME280;11441;57.164;-2.120;2023-04-01T14:11:50;101033.81;;;7.60;100.00
22550;BME280;11441;57.164;-2.120;2023-04-01T14:38:54;101077.78;;;7.81;100.00
22550;BME280;11441;57.164;-2.120;2023-04-01T14:50:15;101085.50;;;7.87;100.00
22550;BME280;11441;57.164;-2.120;2023-04-01T14:58:23;101102.16;;;7.73;100.00
22550;BME280;11441;57.164;-2.120;2023-04-01T15:09:46;101115.38;;;7.54;100.00
22550;BME280;11441;57.164;-2.120;2023-04-01T15:12:53;101122.03;;;7.44;100.00
22550;BME280;11441;57.164;-2.120;2023-04-01T15:50:53;101171.66;;;7.69;100.00
22550;BME280;11441;57.164;-2.120;2023-04-01T15:53:49;101176.34;;;7.68;100.00
22550;BME280;11441;57.164;-2.120;2023-04-01T15:59:37;101182.00;;;7.28;100.00
22550;BME280;11441;57.164;-2.120;2023-04-01T16:10:37;101198.94;;;7.57;100.00
22550;BME280;11441;57.164;-2.120;2023-04-01T16:13:28;101200.50;;;7.23;100.00
22550;BME280;11441;57.164;-2.120;2023-04-01T16:19:03;101203.09;;;7.80;100.00
22550;BME280;11441;57.164;-2.120;2023-04-01T16:24:17;101211.97;;;7.95;100.00
22550;BME280;11441;57.164;-2.120;2023-04-01T16:26:53;101210.69;;;7.66;100.00
22550;BME280;11441;57.164;-2.120;2023-04-01T16:29:49;101220.53;;;7.76;100.00
22550;BME280;11441;57.164;-2.120;2023-04-01T16:32:31;101223.13;;;7.81;100.00
22550;BME280;11441;57.164;-2.120;2023-04-01T16:40:47;101225.88;;;7.81;100.00
22550;BME280;11441;57.164;-2.120;2023-04-01T16:43:35;101236.84;;;7.72;100.00
22550;BME280;11441;57.164;-2.120;2023-04-01T16:51:48;101245.69;;;7.69;100.00
22550;BME280;11441;57.164;-2.120;2023-04-01T16:57:50;101259.56;;;7.90;100.00
22550;BME280;11441;57.164;-2.120;2023-04-01T17:01:07;101258.78;;;7.89;100.00
22550;BME280;11441;57.164;-2.120;2023-04-01T17:03:46;101266.00;;;7.94;100.00
22550;BME280;11441;57.164;-2.120;2023-04-01T17:06:45;101276.66;;;7.78;100.00
22550;BME280;11441;57.164;-2.120;2023-04-01T17:12:19;101283.41;;;7.37;100.00
22550;BME280;11441;57.164;-2.120;2023-04-01T17:21:07;101292.16;;;7.74;100.00
22550;BME280;11441;57.164;-2.120;2023-04-01T17:24:00;101294.41;;;7.72;100.00
22550;BME280;11441;57.164;-2.120;2023-04-01T17:26:38;101292.94;;;7.74;100.00
22550;BME280;11441;57.164;-2.120;2023-04-01T17:29:25;101301.03;;;7.80;100.00
22550;BME280;11441;57.164;-2.120;2023-04-01T17:34:52;101316.19;;;7.68;100.00
22550;BME280;11441;57.164;-2.120;2023-04-01T17:43:52;101327.94;;;7.69;100.00
22550;BME280;11441;57.164;-2.120;2023-04-01T17:45:57;101329.59;;;7.21;100.00
22550;BME280;11441;57.164;-2.120;2023-04-01T17:51:26;101340.81;;;7.51;100.00
22550;BME280;11441;57.164;-2.120;2023-04-01T17:56:35;101353.25;;;7.57;100.00
22550;BME280;11441;57.164;-2.120;2023-04-01T18:02:48;101356.00;;;7.66;100.00
22550;BME280;11441;57.164;-2.120;2023-04-01T18:05:27;101366.47;;;7.55;100.00
22550;BME280;11441;57.164;-2.120;2023-04-01T18:08:12;101365.41;;;7.73;100.00
22550;BME280;11441;57.164;-2.120;2023-04-01T18:11:00;101369.41;;;7.67;100.00
22550;BME280;11441;57.164;-2.120;2023-04-01T18:19:08;101388.75;;;7.71;100.00
22550;BME280;11441;57.164;-2.120;2023-04-01T18:21:49;101398.38;;;7.51;100.00
22550;BME280;11441;57.164;-2.120;2023-04-01T18:24:44;101404.53;;;7.57;100.00
22550;BME280;11441;57.164;-2.120;2023-04-01T18:27:37;101405.97;;;7.63;100.00
22550;BME280;11441;57.164;-2.120;2023-04-01T18:30:13;101416.63;;;7.64;100.00
22550;BME280;11441;57.164;-2.120;2023-04-01T18:32:51;101410.06;;;7.74;100.00
22550;BME280;11441;57.164;-2.120;2023-04-01T18:38:34;101426.78;;;7.55;100.00
22550;BME280;11441;57.164;-2.120;2023-04-01T18:44:03;101434.06;;;7.60;100.00
22550;BME280;11441;57.164;-2.120;2023-04-01T18:46:55;101444.41;;;7.71;100.00
22550;BME280;11441;57.164;-2.120;2023-04-01T18:49:52;101446.00;;;7.64;100.00
22550;BME280;11441;57.164;-2.120;2023-04-01T18:57:23;101460.97;;;7.58;100.00
22550;BME280;11441;57.164;-2.120;2023-04-01T18:59:58;101456.94;;;7.55;100.00
22550;BME280;11441;57.164;-2.120;2023-04-01T19:02:46;101466.13;;;7.59;100.00
22550;BME280;11441;57.164;-2.120;2023-04-01T19:05:39;101474.72;;;7.66;100.00
22550;BME280;11441;57.164;-2.120;2023-04-01T19:11:11;101472.47;;;7.68;100.00
22550;BME280;11441;57.164;-2.120;2023-04-01T19:19:28;101490.53;;;7.69;100.00
22550;BME280;11441;57.164;-2.120;2023-04-01T19:22:00;101500.06;;;7.72;100.00
22550;BME280;11441;57.164;-2.120;2023-04-01T19:25:01;101503.25;;;7.65;100.00
22550;BME280;11441;57.164;-2.120;2023-04-01T19:27:46;101507.50;;;7.49;100.00
22550;BME280;11441;57.164;-2.120;2023-04-01T19:30:33;101517.59;;;7.62;100.00
22550;BME280;11441;57.164;-2.120;2023-04-01T19:39:00;101529.69;;;7.61;100.00
22550;BME280;11441;57.164;-2.120;2023-04-01T19:45:03;101545.72;;;7.77;100.00
22550;BME280;11441;57.164;-2.120;2023-04-01T19:50:39;101547.31;;;7.69;100.00
22550;BME280;11441;57.164;-2.120;2023-04-01T19:56:16;101555.34;;;7.65;100.00
22550;BME280;11441;57.164;-2.120;2023-04-01T20:01:41;101558.41;;;7.64;100.00
22550;BME280;11441;57.164;-2.120;2023-04-01T20:04:16;101560.53;;;7.67;100.00
22550;BME280;11441;57.164;-2.120;2023-04-01T20:09:47;101575.47;;;7.61;100.00
22550;BME280;11441;57.164;-2.120;2023-04-01T20:13:06;101576.78;;;7.63;100.00
22550;BME280;11441;57.164;-2.120;2023-04-01T20:15:37;101584.41;;;7.66;100.00
22550;BME280;11441;57.164;-2.120;2023-04-01T20:18:15;101584.47;;;7.52;100.00
22550;BME280;11441;57.164;-2.120;2023-04-01T20:20:57;101592.75;;;7.61;100.00
22550;BME280;11441;57.164;-2.120;2023-04-01T20:26:30;101593.13;;;7.68;100.00
22550;BME280;11441;57.164;-2.120;2023-04-01T20:29:12;101600.66;;;7.63;100.00
22550;BME280;11441;57.164;-2.120;2023-04-01T20:31:43;101606.19;;;7.49;100.00
22550;BME280;11441;57.164;-2.120;2023-04-01T20:34:32;101601.72;;;7.53;100.00
22550;BME280;11441;57.164;-2.120;2023-04-01T20:43:14;101617.50;;;7.70;100.00
22550;BME280;11441;57.164;-2.120;2023-04-01T20:46:01;101617.56;;;7.56;100.00
22550;BME280;11441;57.164;-2.120;2023-04-01T20:48:49;101628.66;;;7.51;100.00
22550;BME280;11441;57.164;-2.120;2023-04-01T20:51:26;101630.31;;;7.61;100.00
22550;BME280;11441;57.164;-2.120;2023-04-01T20:54:33;101632.13;;;7.65;100.00
22550;BME280;11441;57.164;-2.120;2023-04-01T20:57:21;101635.22;;;7.72;100.00
22550;BME280;11441;57.164;-2.120;2023-04-01T21:03:12;101648.03;;;7.77;100.00
22550;BME280;11441;57.164;-2.120;2023-04-01T21:06:03;101645.91;;;7.74;100.00
22550;BME280;11441;57.164;-2.120;2023-04-01T21:08:49;101653.81;;;7.53;100.00
22550;BME280;11441;57.164;-2.120;2023-04-01T21:11:31;101655.41;;;7.54;100.00
22550;BME280;11441;57.164;-2.120;2023-04-01T21:17:01;101663.56;;;7.45;100.00
22550;BME280;11441;57.164;-2.120;2023-04-01T21:27:42;101672.63;;;7.46;100.00
22550;BME280;11441;57.164;-2.120;2023-04-01T21:30:35;101667.88;;;7.38;100.00
22550;BME280;11441;57.164;-2.120;2023-04-01T21:38:25;101683.59;;;7.46;100.00
22550;BME280;11441;57.164;-2.120;2023-04-01T21:41:23;101686.38;;;7.32;100.00
22550;BME280;11441;57.164;-2.120;2023-04-01T21:49:24;101683.41;;;7.42;100.00
22550;BME280;11441;57.164;-2.120;2023-04-01T22:00:19;101692.81;;;6.99;100.00
22550;BME280;11441;57.164;-2.120;2023-04-01T22:12:04;101706.81;;;6.84;100.00
22550;BME280;11441;57.164;-2.120;2023-04-01T22:14:31;101698.69;;;6.93;100.00
22550;BME280;11441;57.164;-2.120;2023-04-01T22:28:27;101716.75;;;7.08;100.00
22550;BME280;11441;57.164;-2.120;2023-04-01T22:31:00;101716.25;;;7.06;100.00
22550;BME280;11441;57.164;-2.120;2023-04-01T22:43:56;101735.44;;;6.92;100.00
22550;BME280;11441;57.164;-2.120;2023-04-01T22:52:15;101746.59;;;6.82;100.00
22550;BME280;11441;57.164;-2.120;2023-04-01T22:54:52;101748.09;;;6.74;100.00
22550;BME280;11441;57.164;-2.120;2023-04-01T22:57:50;101749.25;;;6.87;100.00